Hauptseite
METAR-TAF:

METAR-TAF

Flughäfen :

Aigen im Ennstal, Österreich

Breite: 47-32N, Länge: 014-08E, Höhe: 638 m

METAR: fehlend

Zeit: 11:49 (09:49 UTC)

Prognose

Neuester Wetterbericht von vor 1 Stunde und 34 Minuten, um 08:15 UTC
Gültige Prognose vom 24 um 09 UTC bis 24 um 18 UTC
Wind 7 kt aus unterschiedlichen Richtungen
Sichtweite 10 km oder mehr
Leicht bewölkt in der Höhe von 2500 ft
Durchbrochene Bewölkung in der Höhe von 28000 ft
Wahrscheinlichkeit 30% :
Zeitweise
vom 24 um 11 UTC bis 24 um 16 UTC
Wind 15 kt aus unterschiedlichen Richtungen
Sichtweite: 5000 m
Leicht bewölkt in der Höhe von 1500 ft
Aufgelockert bewölkt in der Höhe von 4500 ft, Kumulonimbus.
Durchbrochene Bewölkung in der Höhe von 5000 ft
Gewitter, Regen

TAF: LOXA 240815Z 2409/2418 VRB07KT 9999 FEW025 BKN280 PROB30 TEMPO 2411/2416 VRB15KT 5000 TSRA FEW015 SCT045CB BKN050

Wetterbeobachtungen und Prognosen von mehr als 4000 Flughäfen (METAR und TAF Bericht).

Die verfügbaren Stationen werden durch gelbe und rote Markierungen auf der Karte dargestellt.

Führen Sie die Maus auf sie, um den Namen der Station zu sehen.

Darauf klicken, um die Beobachtung von Wetterbeobachtungen und Prognosen zu sehen.

Um die Karte zu ändern : klicken Sie auf den grünen Tasten mit einem schwarzen Kreuz Zum Vergrößern, auf den grünen Button mit einem Gedankenstrich zu verkleinern, oder auf die grünen Pfeile für benachbarte Karten.


METAR-TAF: